Menomonee Falls, Wisconsin
Current Conditions -  °F | °C
As of 9:55 PM on Saturday 20 Dec 2014 (Local Time) from KMWC Reporting Station
Overcast Overcast  
Wind Chill: 32°   Ceiling: 3400
Heat Index: 32°   Visibility: 7mi
Dew Point: 25°   Wind: 3mph
Humidity: 75%   Direction: 190°S
Pressure: 30.24"   Gusts: NA
Location:  43.17°N, 88.1°W
Report Text: KMWC 210355Z AUTO 19003KT 7SM OVC034 00/M04 A3024 RMK AO2
Loading
Personal Weather Stations






























Interactive Weather Map New forecast layout! Learn more

10-Day Weather Forecast

Advertisements
Track Severe Weather on mobile